sensor_id;sensor_type;location;lat;lon;timestamp;pressure;altitude;pressure_sealevel;temperature;humidity
83273;BME280;73177;51.584;5.188;2024-03-08T00:01:14;101741.88;;;10.65;55.42
83273;BME280;73177;51.584;5.188;2024-03-08T00:03:41;101734.84;;;10.69;54.63
83273;BME280;73177;51.584;5.188;2024-03-08T00:06:07;101742.53;;;10.32;55.67
83273;BME280;73177;51.584;5.188;2024-03-08T00:08:32;101740.50;;;10.48;55.52
83273;BME280;73177;51.584;5.188;2024-03-08T00:10:57;101725.16;;;10.28;55.87
83273;BME280;73177;51.584;5.188;2024-03-08T00:13:23;101717.06;;;10.39;54.84
83273;BME280;73177;51.584;5.188;2024-03-08T00:15:50;101723.38;;;9.78;57.05
83273;BME280;73177;51.584;5.188;2024-03-08T00:18:15;101719.84;;;10.31;55.14
83273;BME280;73177;51.584;5.188;2024-03-08T00:20:42;101730.41;;;10.27;55.39
83273;BME280;73177;51.584;5.188;2024-03-08T00:23:09;101720.44;;;9.96;55.94
83273;BME280;73177;51.584;5.188;2024-03-08T00:25:35;101723.19;;;9.89;55.89
83273;BME280;73177;51.584;5.188;2024-03-08T00:28:01;101717.59;;;10.08;55.94
83273;BME280;73177;51.584;5.188;2024-03-08T00:30:26;101721.56;;;9.83;56.39
83273;BME280;73177;51.584;5.188;2024-03-08T00:32:52;101725.22;;;10.24;55.43
83273;BME280;73177;51.584;5.188;2024-03-08T00:35:17;101707.72;;;9.72;56.07
83273;BME280;73177;51.584;5.188;2024-03-08T00:37:43;101711.91;;;9.85;56.59
83273;BME280;73177;51.584;5.188;2024-03-08T00:40:12;101710.13;;;9.86;55.85
83273;BME280;73177;51.584;5.188;2024-03-08T00:42:37;101709.47;;;9.73;57.54
83273;BME280;73177;51.584;5.188;2024-03-08T00:45:04;101709.16;;;9.91;55.11
83273;BME280;73177;51.584;5.188;2024-03-08T00:47:29;101710.38;;;10.24;54.73
83273;BME280;73177;51.584;5.188;2024-03-08T00:49:54;101690.03;;;10.35;53.42
83273;BME280;73177;51.584;5.188;2024-03-08T00:52:21;101699.75;;;10.30;54.64
83273;BME280;73177;51.584;5.188;2024-03-08T00:54:49;101694.94;;;10.06;54.95
83273;BME280;73177;51.584;5.188;2024-03-08T00:57:14;101677.16;;;9.74;55.06
83273;BME280;73177;51.584;5.188;2024-03-08T00:59:40;101697.25;;;9.72;56.20
83273;BME280;73177;51.584;5.188;2024-03-08T01:02:05;101692.13;;;9.66;55.25
83273;BME280;73177;51.584;5.188;2024-03-08T01:04:31;101695.78;;;10.06;54.98
83273;BME280;73177;51.584;5.188;2024-03-08T01:06:57;101682.84;;;9.97;54.26
83273;BME280;73177;51.584;5.188;2024-03-08T01:09:23;101683.69;;;9.49;55.24
83273;BME280;73177;51.584;5.188;2024-03-08T01:11:49;101679.94;;;9.64;55.88
83273;BME280;73177;51.584;5.188;2024-03-08T01:14:15;101678.53;;;9.93;53.77
83273;BME280;73177;51.584;5.188;2024-03-08T01:16:40;101677.34;;;9.62;54.57
83273;BME280;73177;51.584;5.188;2024-03-08T01:19:06;101674.34;;;9.85;54.70
83273;BME280;73177;51.584;5.188;2024-03-08T01:21:31;101677.94;;;9.78;54.03
83273;BME280;73177;51.584;5.188;2024-03-08T01:23:57;101675.28;;;9.79;54.98
83273;BME280;73177;51.584;5.188;2024-03-08T01:26:22;101665.28;;;9.54;55.16
83273;BME280;73177;51.584;5.188;2024-03-08T01:28:49;101657.53;;;9.95;54.45
83273;BME280;73177;51.584;5.188;2024-03-08T01:31:14;101661.75;;;9.56;55.05
83273;BME280;73177;51.584;5.188;2024-03-08T01:33:41;101667.34;;;9.84;53.33
83273;BME280;73177;51.584;5.188;2024-03-08T01:36:06;101656.94;;;9.79;54.23
83273;BME280;73177;51.584;5.188;2024-03-08T01:38:32;101657.50;;;9.49;54.71
83273;BME280;73177;51.584;5.188;2024-03-08T01:40:57;101660.38;;;9.84;53.42
83273;BME280;73177;51.584;5.188;2024-03-08T01:43:26;101657.81;;;9.28;54.89
83273;BME280;73177;51.584;5.188;2024-03-08T01:45:55;101653.31;;;9.38;54.86
83273;BME280;73177;51.584;5.188;2024-03-08T01:48:23;101647.47;;;9.22;55.38
83273;BME280;73177;51.584;5.188;2024-03-08T01:50:50;101639.31;;;9.39;55.78
83273;BME280;73177;51.584;5.188;2024-03-08T01:53:17;101639.59;;;9.20;55.65
83273;BME280;73177;51.584;5.188;2024-03-08T01:55:44;101639.47;;;9.29;55.72
83273;BME280;73177;51.584;5.188;2024-03-08T01:58:12;101629.69;;;9.41;55.13
83273;BME280;73177;51.584;5.188;2024-03-08T02:00:42;101632.06;;;9.56;54.34
83273;BME280;73177;51.584;5.188;2024-03-08T02:03:09;101637.19;;;9.07;55.36
83273;BME280;73177;51.584;5.188;2024-03-08T02:05:34;101632.81;;;9.09;54.76
83273;BME280;73177;51.584;5.188;2024-03-08T02:08:01;101630.53;;;9.41;54.92
83273;BME280;73177;51.584;5.188;2024-03-08T02:10:28;101616.41;;;8.99;55.67
83273;BME280;73177;51.584;5.188;2024-03-08T02:12:53;101611.59;;;9.25;54.38
83273;BME280;73177;51.584;5.188;2024-03-08T02:15:19;101622.59;;;8.92;55.80
83273;BME280;73177;51.584;5.188;2024-03-08T02:17:45;101618.97;;;9.54;53.89
83273;BME280;73177;51.584;5.188;2024-03-08T02:20:10;101604.44;;;9.37;54.14
83273;BME280;73177;51.584;5.188;2024-03-08T02:22:38;101615.06;;;9.29;55.11
83273;BME280;73177;51.584;5.188;2024-03-08T02:25:04;101610.88;;;9.17;54.57
83273;BME280;73177;51.584;5.188;2024-03-08T02:27:30;101614.38;;;9.16;54.43
83273;BME280;73177;51.584;5.188;2024-03-08T02:29:57;101604.78;;;9.17;54.30
83273;BME280;73177;51.584;5.188;2024-03-08T02:32:25;101608.66;;;8.92;55.90
83273;BME280;73177;51.584;5.188;2024-03-08T02:34:51;101598.63;;;9.18;54.11
83273;BME280;73177;51.584;5.188;2024-03-08T02:37:17;101599.75;;;9.03;55.68
83273;BME280;73177;51.584;5.188;2024-03-08T02:39:42;101598.88;;;9.03;55.19
83273;BME280;73177;51.584;5.188;2024-03-08T02:42:08;101581.66;;;8.90;55.14
83273;BME280;73177;51.584;5.188;2024-03-08T02:44:33;101594.56;;;8.39;56.88
83273;BME280;73177;51.584;5.188;2024-03-08T02:46:59;101589.31;;;9.00;55.01
83273;BME280;73177;51.584;5.188;2024-03-08T02:49:25;101574.66;;;8.90;55.08
83273;BME280;73177;51.584;5.188;2024-03-08T02:51:52;101582.69;;;8.78;55.83
83273;BME280;73177;51.584;5.188;2024-03-08T02:54:17;101578.81;;;9.02;55.52
83273;BME280;73177;51.584;5.188;2024-03-08T02:56:42;101570.03;;;8.49;56.48
83273;BME280;73177;51.584;5.188;2024-03-08T02:59:08;101576.19;;;8.44;56.24
83273;BME280;73177;51.584;5.188;2024-03-08T03:01:33;101569.38;;;8.95;54.34
83273;BME280;73177;51.584;5.188;2024-03-08T03:04:00;101566.41;;;9.14;54.41
83273;BME280;73177;51.584;5.188;2024-03-08T03:06:25;101562.38;;;8.36;56.41
83273;BME280;73177;51.584;5.188;2024-03-08T03:08:51;101557.41;;;8.77;56.01
83273;BME280;73177;51.584;5.188;2024-03-08T03:11:16;101552.28;;;8.71;55.55
83273;BME280;73177;51.584;5.188;2024-03-08T03:13:42;101554.91;;;8.70;55.53
83273;BME280;73177;51.584;5.188;2024-03-08T03:16:17;101555.03;;;8.62;55.58
83273;BME280;73177;51.584;5.188;2024-03-08T03:18:43;101546.03;;;8.81;55.16
83273;BME280;73177;51.584;5.188;2024-03-08T03:21:09;101545.22;;;8.76;54.58
83273;BME280;73177;51.584;5.188;2024-03-08T03:23:34;101541.81;;;9.23;53.87
83273;BME280;73177;51.584;5.188;2024-03-08T03:26:00;101542.22;;;8.44;54.87
83273;BME280;73177;51.584;5.188;2024-03-08T03:28:27;101527.75;;;8.78;54.19
83273;BME280;73177;51.584;5.188;2024-03-08T03:30:53;101546.41;;;8.55;55.18
83273;BME280;73177;51.584;5.188;2024-03-08T03:33:18;101539.28;;;8.63;54.37
83273;BME280;73177;51.584;5.188;2024-03-08T03:35:44;101532.19;;;8.73;54.10
83273;BME280;73177;51.584;5.188;2024-03-08T03:38:09;101534.72;;;8.78;55.46
83273;BME280;73177;51.584;5.188;2024-03-08T03:40:38;101534.53;;;8.90;53.87
83273;BME280;73177;51.584;5.188;2024-03-08T03:43:04;101536.28;;;8.33;56.28
83273;BME280;73177;51.584;5.188;2024-03-08T03:45:30;101542.38;;;8.32;56.42
83273;BME280;73177;51.584;5.188;2024-03-08T03:48:06;101531.56;;;8.57;55.43
83273;BME280;73177;51.584;5.188;2024-03-08T03:50:34;101527.53;;;8.35;55.95
83273;BME280;73177;51.584;5.188;2024-03-08T03:52:59;101530.28;;;8.20;56.67
83273;BME280;73177;51.584;5.188;2024-03-08T03:55:25;101526.84;;;8.20;56.29
83273;BME280;73177;51.584;5.188;2024-03-08T03:57:50;101518.84;;;8.32;55.56
83273;BME280;73177;51.584;5.188;2024-03-08T04:00:16;101516.72;;;8.56;54.73
83273;BME280;73177;51.584;5.188;2024-03-08T04:02:41;101520.53;;;8.37;55.75
83273;BME280;73177;51.584;5.188;2024-03-08T04:05:08;101519.31;;;8.59;55.30
83273;BME280;73177;51.584;5.188;2024-03-08T04:07:35;101530.25;;;8.23;55.64
83273;BME280;73177;51.584;5.188;2024-03-08T04:10:05;101524.97;;;8.31;55.29
83273;BME280;73177;51.584;5.188;2024-03-08T04:12:34;101514.53;;;8.28;56.40
83273;BME280;73177;51.584;5.188;2024-03-08T04:14:59;101515.53;;;8.16;56.31
83273;BME280;73177;51.584;5.188;2024-03-08T04:17:25;101515.31;;;8.36;55.17
83273;BME280;73177;51.584;5.188;2024-03-08T04:19:51;101510.34;;;8.15;55.05
83273;BME280;73177;51.584;5.188;2024-03-08T04:22:16;101507.75;;;8.12;56.08
83273;BME280;73177;51.584;5.188;2024-03-08T04:24:43;101512.19;;;8.07;56.04
83273;BME280;73177;51.584;5.188;2024-03-08T04:27:09;101506.94;;;8.07;55.93
83273;BME280;73177;51.584;5.188;2024-03-08T04:29:34;101503.09;;;8.36;54.84
83273;BME280;73177;51.584;5.188;2024-03-08T04:32:02;101505.41;;;7.90;55.77
83273;BME280;73177;51.584;5.188;2024-03-08T04:34:29;101500.81;;;8.09;55.93
83273;BME280;73177;51.584;5.188;2024-03-08T04:36:54;101500.09;;;7.98;55.99
83273;BME280;73177;51.584;5.188;2024-03-08T04:39:19;101497.94;;;8.33;55.46
83273;BME280;73177;51.584;5.188;2024-03-08T04:41:46;101497.03;;;8.36;55.23
83273;BME280;73177;51.584;5.188;2024-03-08T04:44:12;101491.72;;;7.73;56.66
83273;BME280;73177;51.584;5.188;2024-03-08T04:46:38;101488.19;;;7.79;56.45
83273;BME280;73177;51.584;5.188;2024-03-08T04:49:03;101478.44;;;7.88;56.50
83273;BME280;73177;51.584;5.188;2024-03-08T04:51:28;101478.63;;;7.76;56.50
83273;BME280;73177;51.584;5.188;2024-03-08T04:53:54;101485.00;;;8.21;54.99
83273;BME280;73177;51.584;5.188;2024-03-08T04:56:19;101478.19;;;8.10;55.58
83273;BME280;73177;51.584;5.188;2024-03-08T04:58:45;101483.81;;;7.78;56.56
83273;BME280;73177;51.584;5.188;2024-03-08T05:01:14;101479.47;;;7.78;56.35
83273;BME280;73177;51.584;5.188;2024-03-08T05:03:40;101479.13;;;8.03;55.96
83273;BME280;73177;51.584;5.188;2024-03-08T05:06:06;101483.41;;;8.10;55.94
83273;BME280;73177;51.584;5.188;2024-03-08T05:08:31;101474.28;;;7.72;56.27
83273;BME280;73177;51.584;5.188;2024-03-08T05:10:56;101475.09;;;7.80;56.66
83273;BME280;73177;51.584;5.188;2024-03-08T05:13:22;101478.41;;;7.95;55.74
83273;BME280;73177;51.584;5.188;2024-03-08T05:15:49;101480.97;;;7.96;56.25
83273;BME280;73177;51.584;5.188;2024-03-08T05:18:15;101454.47;;;7.58;56.18
83273;BME280;73177;51.584;5.188;2024-03-08T05:20:40;101467.94;;;7.95;56.03
83273;BME280;73177;51.584;5.188;2024-03-08T05:23:06;101462.44;;;8.14;54.36
83273;BME280;73177;51.584;5.188;2024-03-08T05:25:32;101459.97;;;8.02;55.24
83273;BME280;73177;51.584;5.188;2024-03-08T05:27:57;101456.09;;;8.32;54.25
83273;BME280;73177;51.584;5.188;2024-03-08T05:30:23;101467.28;;;8.41;54.21
83273;BME280;73177;51.584;5.188;2024-03-08T05:32:48;101464.25;;;8.09;55.14
83273;BME280;73177;51.584;5.188;2024-03-08T05:35:14;101469.59;;;8.00;54.96
83273;BME280;73177;51.584;5.188;2024-03-08T05:37:41;101445.09;;;8.10;54.91
83273;BME280;73177;51.584;5.188;2024-03-08T05:40:07;101468.97;;;7.81;55.73
83273;BME280;73177;51.584;5.188;2024-03-08T05:42:38;101456.00;;;7.72;55.92
83273;BME280;73177;51.584;5.188;2024-03-08T05:45:04;101461.34;;;7.63;56.31
83273;BME280;73177;51.584;5.188;2024-03-08T05:47:32;101449.06;;;7.74;55.78
83273;BME280;73177;51.584;5.188;2024-03-08T05:50:00;101438.31;;;7.96;55.14
83273;BME280;73177;51.584;5.188;2024-03-08T05:52:25;101448.63;;;7.38;57.03
83273;BME280;73177;51.584;5.188;2024-03-08T05:54:51;101443.28;;;7.45;56.79
83273;BME280;73177;51.584;5.188;2024-03-08T05:57:17;101440.22;;;7.81;56.14
83273;BME280;73177;51.584;5.188;2024-03-08T05:59:42;101439.06;;;7.37;56.67
83273;BME280;73177;51.584;5.188;2024-03-08T06:02:07;101440.41;;;7.69;55.98
83273;BME280;73177;51.584;5.188;2024-03-08T06:04:33;101441.06;;;7.85;55.29
83273;BME280;73177;51.584;5.188;2024-03-08T06:06:58;101444.09;;;7.50;56.40
83273;BME280;73177;51.584;5.188;2024-03-08T06:09:24;101436.06;;;7.70;55.86
83273;BME280;73177;51.584;5.188;2024-03-08T06:11:51;101434.22;;;7.75;54.71
83273;BME280;73177;51.584;5.188;2024-03-08T06:14:16;101429.16;;;7.64;55.90
83273;BME280;73177;51.584;5.188;2024-03-08T06:16:45;101430.59;;;7.86;55.18
83273;BME280;73177;51.584;5.188;2024-03-08T06:19:10;101419.66;;;7.57;55.73
83273;BME280;73177;51.584;5.188;2024-03-08T06:21:37;101429.28;;;7.54;56.37
83273;BME280;73177;51.584;5.188;2024-03-08T06:24:03;101406.69;;;7.50;56.17
83273;BME280;73177;51.584;5.188;2024-03-08T06:26:29;101432.81;;;8.14;55.48
83273;BME280;73177;51.584;5.188;2024-03-08T06:28:55;101422.13;;;7.69;55.30
83273;BME280;73177;51.584;5.188;2024-03-08T06:31:20;101415.25;;;8.23;53.97
83273;BME280;73177;51.584;5.188;2024-03-08T06:33:46;101410.00;;;7.64;55.62
83273;BME280;73177;51.584;5.188;2024-03-08T06:36:11;101427.09;;;7.87;55.23
83273;BME280;73177;51.584;5.188;2024-03-08T06:38:38;101413.63;;;8.16;54.57
83273;BME280;73177;51.584;5.188;2024-03-08T06:41:08;101412.69;;;8.20;53.55
83273;BME280;73177;51.584;5.188;2024-03-08T06:43:34;101402.31;;;8.71;53.13
83273;BME280;73177;51.584;5.188;2024-03-08T06:45:59;101401.06;;;8.42;52.82
83273;BME280;73177;51.584;5.188;2024-03-08T06:48:25;101397.91;;;8.73;51.80
83273;BME280;73177;51.584;5.188;2024-03-08T06:50:50;101409.78;;;8.41;54.00
83273;BME280;73177;51.584;5.188;2024-03-08T06:53:16;101413.59;;;8.74;51.99
83273;BME280;73177;51.584;5.188;2024-03-08T06:55:44;101406.13;;;8.51;52.86
83273;BME280;73177;51.584;5.188;2024-03-08T06:58:09;101414.81;;;8.53;52.88
83273;BME280;73177;51.584;5.188;2024-03-08T07:00:36;101411.59;;;8.36;53.93
83273;BME280;73177;51.584;5.188;2024-03-08T07:03:02;101409.94;;;7.70;54.22
83273;BME280;73177;51.584;5.188;2024-03-08T07:05:28;101403.81;;;8.32;53.48
83273;BME280;73177;51.584;5.188;2024-03-08T07:07:54;101402.03;;;8.34;53.72
83273;BME280;73177;51.584;5.188;2024-03-08T07:10:21;101400.84;;;8.56;53.53
83273;BME280;73177;51.584;5.188;2024-03-08T07:12:48;101401.41;;;8.73;53.03
83273;BME280;73177;51.584;5.188;2024-03-08T07:15:14;101405.84;;;8.68;52.52
83273;BME280;73177;51.584;5.188;2024-03-08T07:17:40;101399.72;;;8.69;53.45
83273;BME280;73177;51.584;5.188;2024-03-08T07:20:06;101401.97;;;8.40;53.92
83273;BME280;73177;51.584;5.188;2024-03-08T07:22:37;101402.44;;;8.65;52.83
83273;BME280;73177;51.584;5.188;2024-03-08T07:25:07;101399.31;;;8.41;53.57
83273;BME280;73177;51.584;5.188;2024-03-08T07:27:33;101393.75;;;8.63;53.21
83273;BME280;73177;51.584;5.188;2024-03-08T07:30:02;101389.09;;;8.78;53.35
83273;BME280;73177;51.584;5.188;2024-03-08T07:32:28;101392.59;;;8.79;53.23
83273;BME280;73177;51.584;5.188;2024-03-08T07:34:55;101386.81;;;9.07;51.86
83273;BME280;73177;51.584;5.188;2024-03-08T07:37:21;101373.53;;;11.02;47.95
83273;BME280;73177;51.584;5.188;2024-03-08T07:39:46;101373.16;;;11.46;46.10
83273;BME280;73177;51.584;5.188;2024-03-08T07:42:12;101364.88;;;11.89;45.36
83273;BME280;73177;51.584;5.188;2024-03-08T07:44:37;101364.56;;;12.52;43.59
83273;BME280;73177;51.584;5.188;2024-03-08T07:47:03;101366.13;;;12.83;42.39
83273;BME280;73177;51.584;5.188;2024-03-08T07:49:29;101355.88;;;12.24;42.69
83273;BME280;73177;51.584;5.188;2024-03-08T07:51:55;101354.63;;;13.35;41.58
83273;BME280;73177;51.584;5.188;2024-03-08T07:54:21;101339.63;;;12.63;42.14
83273;BME280;73177;51.584;5.188;2024-03-08T07:56:46;101346.72;;;13.11;41.48
83273;BME280;73177;51.584;5.188;2024-03-08T07:59:12;101355.44;;;11.53;44.38
83273;BME280;73177;51.584;5.188;2024-03-08T08:01:37;101339.81;;;10.56;47.24
83273;BME280;73177;51.584;5.188;2024-03-08T08:04:03;101350.94;;;10.30;48.02
83273;BME280;73177;51.584;5.188;2024-03-08T08:06:28;101344.19;;;9.83;49.70
83273;BME280;73177;51.584;5.188;2024-03-08T08:08:57;101337.78;;;9.57;49.81
83273;BME280;73177;51.584;5.188;2024-03-08T08:11:22;101346.06;;;9.77;50.21
83273;BME280;73177;51.584;5.188;2024-03-08T08:13:47;101329.50;;;10.13;49.45
83273;BME280;73177;51.584;5.188;2024-03-08T08:16:13;101333.91;;;10.11;49.43
83273;BME280;73177;51.584;5.188;2024-03-08T08:18:38;101331.84;;;10.59;48.76
83273;BME280;73177;51.584;5.188;2024-03-08T08:21:04;101324.81;;;10.59;48.34
83273;BME280;73177;51.584;5.188;2024-03-08T08:23:32;101294.38;;;12.01;44.39
83273;BME280;73177;51.584;5.188;2024-03-08T08:25:57;101323.94;;;12.85;42.74
83273;BME280;73177;51.584;5.188;2024-03-08T08:28:22;101310.78;;;15.01;39.63
83273;BME280;73177;51.584;5.188;2024-03-08T08:30:48;101307.19;;;14.84;39.54
83273;BME280;73177;51.584;5.188;2024-03-08T08:33:16;101288.34;;;15.67;37.37
83273;BME280;73177;51.584;5.188;2024-03-08T08:35:42;101302.16;;;14.16;38.63
83273;BME280;73177;51.584;5.188;2024-03-08T08:38:07;101301.78;;;14.47;39.09
83273;BME280;73177;51.584;5.188;2024-03-08T08:40:33;101292.47;;;14.16;39.67
83273;BME280;73177;51.584;5.188;2024-03-08T08:43:01;101290.81;;;14.36;40.16
83273;BME280;73177;51.584;5.188;2024-03-08T08:45:31;101293.47;;;15.89;37.14
83273;BME280;73177;51.584;5.188;2024-03-08T08:47:57;101278.84;;;17.18;34.72
83273;BME280;73177;51.584;5.188;2024-03-08T08:50:25;101278.78;;;16.86;34.39
83273;BME280;73177;51.584;5.188;2024-03-08T08:52:51;101288.41;;;16.02;36.50
83273;BME280;73177;51.584;5.188;2024-03-08T08:55:18;101288.03;;;14.99;38.07
83273;BME280;73177;51.584;5.188;2024-03-08T08:57:46;101266.50;;;16.68;35.64
83273;BME280;73177;51.584;5.188;2024-03-08T09:00:12;101262.84;;;18.13;32.59
83273;BME280;73177;51.584;5.188;2024-03-08T09:02:41;101261.19;;;18.26;33.01
83273;BME280;73177;51.584;5.188;2024-03-08T09:05:06;101261.78;;;17.39;33.42
83273;BME280;73177;51.584;5.188;2024-03-08T09:07:35;101254.66;;;16.75;33.87
83273;BME280;73177;51.584;5.188;2024-03-08T09:10:00;101250.50;;;17.66;33.34
83273;BME280;73177;51.584;5.188;2024-03-08T09:12:26;101252.25;;;17.03;33.64
83273;BME280;73177;51.584;5.188;2024-03-08T09:14:51;101233.19;;;17.44;33.29
83273;BME280;73177;51.584;5.188;2024-03-08T09:17:17;101253.09;;;16.20;36.09
83273;BME280;73177;51.584;5.188;2024-03-08T09:19:46;101237.13;;;17.37;33.35
83273;BME280;73177;51.584;5.188;2024-03-08T09:22:12;101243.09;;;15.91;35.19
83273;BME280;73177;51.584;5.188;2024-03-08T09:24:38;101227.47;;;16.72;34.78
83273;BME280;73177;51.584;5.188;2024-03-08T09:27:03;101223.66;;;16.60;34.52
83273;BME280;73177;51.584;5.188;2024-03-08T09:29:28;101223.88;;;16.38;35.53
83273;BME280;73177;51.584;5.188;2024-03-08T09:31:54;101216.06;;;17.80;33.19
83273;BME280;73177;51.584;5.188;2024-03-08T09:34:19;101206.81;;;18.75;31.98
83273;BME280;73177;51.584;5.188;2024-03-08T09:36:45;101204.69;;;17.63;32.70
83273;BME280;73177;51.584;5.188;2024-03-08T09:39:10;101210.78;;;15.84;36.86
83273;BME280;73177;51.584;5.188;2024-03-08T09:41:41;101190.50;;;16.69;33.88
83273;BME280;73177;51.584;5.188;2024-03-08T09:44:07;101175.59;;;18.21;32.36
83273;BME280;73177;51.584;5.188;2024-03-08T09:46:34;101174.91;;;17.27;33.27
83273;BME280;73177;51.584;5.188;2024-03-08T09:49:01;101169.84;;;17.99;32.65
83273;BME280;73177;51.584;5.188;2024-03-08T09:51:28;101159.09;;;17.25;33.86
83273;BME280;73177;51.584;5.188;2024-03-08T09:53:54;101171.53;;;16.26;35.34
83273;BME280;73177;51.584;5.188;2024-03-08T09:56:19;101160.88;;;17.09;34.03
83273;BME280;73177;51.584;5.188;2024-03-08T09:58:45;101161.47;;;17.45;34.09
83273;BME280;73177;51.584;5.188;2024-03-08T10:01:43;101139.63;;;17.86;33.36
83273;BME280;73177;51.584;5.188;2024-03-08T10:04:09;101149.25;;;17.27;33.62
83273;BME280;73177;51.584;5.188;2024-03-08T10:06:35;101128.47;;;18.81;31.26
83273;BME280;73177;51.584;5.188;2024-03-08T10:09:01;101122.88;;;18.57;31.39
83273;BME280;73177;51.584;5.188;2024-03-08T10:11:26;101117.28;;;18.62;31.39
83273;BME280;73177;51.584;5.188;2024-03-08T10:13:52;101114.75;;;18.87;30.39
83273;BME280;73177;51.584;5.188;2024-03-08T10:16:17;101123.63;;;17.87;32.08
83273;BME280;73177;51.584;5.188;2024-03-08T10:18:45;101105.09;;;18.01;33.24
83273;BME280;73177;51.584;5.188;2024-03-08T10:21:11;101107.09;;;18.54;31.17
83273;BME280;73177;51.584;5.188;2024-03-08T10:23:37;101102.84;;;18.51;31.94
83273;BME280;73177;51.584;5.188;2024-03-08T10:26:12;101093.97;;;18.79;31.35
83273;BME280;73177;51.584;5.188;2024-03-08T10:28:44;101091.38;;;17.79;32.49
83273;BME280;73177;51.584;5.188;2024-03-08T10:31:10;101087.47;;;18.28;31.98
83273;BME280;73177;51.584;5.188;2024-03-08T10:33:35;101088.50;;;18.26;32.96
83273;BME280;73177;51.584;5.188;2024-03-08T10:36:03;101089.03;;;17.59;33.85
83273;BME280;73177;51.584;5.188;2024-03-08T10:38:31;101084.88;;;18.13;32.63
83273;BME280;73177;51.584;5.188;2024-03-08T10:40:58;101078.53;;;17.42;33.54
83273;BME280;73177;51.584;5.188;2024-03-08T10:43:24;101083.03;;;17.26;33.46
83273;BME280;73177;51.584;5.188;2024-03-08T10:46:19;101065.28;;;17.86;32.39
83273;BME280;73177;51.584;5.188;2024-03-08T10:48:49;101056.72;;;17.37;33.24
83273;BME280;73177;51.584;5.188;2024-03-08T10:51:15;101059.78;;;18.46;32.45
83273;BME280;73177;51.584;5.188;2024-03-08T10:53:41;101046.47;;;18.46;31.97
83273;BME280;73177;51.584;5.188;2024-03-08T10:56:08;101033.94;;;17.19;33.34
83273;BME280;73177;51.584;5.188;2024-03-08T10:58:36;101028.13;;;17.42;33.70
83273;BME280;73177;51.584;5.188;2024-03-08T11:01:02;101037.34;;;17.80;32.89
83273;BME280;73177;51.584;5.188;2024-03-08T11:03:43;101040.41;;;17.58;34.22
83273;BME280;73177;51.584;5.188;2024-03-08T11:09:04;101044.16;;;17.25;33.21
83273;BME280;73177;51.584;5.188;2024-03-08T11:11:38;101037.81;;;16.97;34.76
83273;BME280;73177;51.584;5.188;2024-03-08T11:14:43;101019.63;;;16.76;34.05
83273;BME280;73177;51.584;5.188;2024-03-08T11:17:09;101020.97;;;15.88;35.94
83273;BME280;73177;51.584;5.188;2024-03-08T11:19:34;101022.78;;;16.03;36.46
83273;BME280;73177;51.584;5.188;2024-03-08T11:22:01;101007.59;;;16.22;36.36
83273;BME280;73177;51.584;5.188;2024-03-08T11:24:27;101001.97;;;15.80;36.05
83273;BME280;73177;51.584;5.188;2024-03-08T11:26:59;101004.28;;;15.53;37.18
83273;BME280;73177;51.584;5.188;2024-03-08T11:31:52;101001.94;;;16.61;36.28
83273;BME280;73177;51.584;5.188;2024-03-08T11:34:19;101000.78;;;15.69;37.80
83273;BME280;73177;51.584;5.188;2024-03-08T11:36:47;100989.25;;;16.03;36.38
83273;BME280;73177;51.584;5.188;2024-03-08T11:39:13;101001.97;;;15.97;36.56
83273;BME280;73177;51.584;5.188;2024-03-08T11:41:40;100986.75;;;16.16;36.41
83273;BME280;73177;51.584;5.188;2024-03-08T11:44:06;100982.25;;;16.18;35.94
83273;BME280;73177;51.584;5.188;2024-03-08T11:46:33;100991.31;;;16.45;37.13
83273;BME280;73177;51.584;5.188;2024-03-08T11:48:59;100990.44;;;16.13;37.13
83273;BME280;73177;51.584;5.188;2024-03-08T11:51:26;100969.09;;;16.48;36.33
83273;BME280;73177;51.584;5.188;2024-03-08T11:53:52;100973.56;;;16.78;35.47
83273;BME280;73177;51.584;5.188;2024-03-08T11:56:18;100969.09;;;16.63;36.02
83273;BME280;73177;51.584;5.188;2024-03-08T11:58:53;100966.31;;;16.96;35.07
83273;BME280;73177;51.584;5.188;2024-03-08T12:01:19;100957.78;;;16.91;34.63
83273;BME280;73177;51.584;5.188;2024-03-08T12:03:44;100963.13;;;16.44;34.85
83273;BME280;73177;51.584;5.188;2024-03-08T12:06:17;100950.41;;;15.71;34.69
83273;BME280;73177;51.584;5.188;2024-03-08T12:08:43;100921.88;;;15.43;34.64
83273;BME280;73177;51.584;5.188;2024-03-08T12:11:08;100949.44;;;15.39;35.25
83273;BME280;73177;51.584;5.188;2024-03-08T12:13:35;100940.81;;;16.48;34.15
83273;BME280;73177;51.584;5.188;2024-03-08T12:16:02;100932.88;;;16.48;33.50
83273;BME280;73177;51.584;5.188;2024-03-08T12:18:36;100937.06;;;16.97;33.98
83273;BME280;73177;51.584;5.188;2024-03-08T12:21:10;100915.59;;;16.72;33.57
83273;BME280;73177;51.584;5.188;2024-03-08T12:23:37;100924.94;;;16.01;34.62
83273;BME280;73177;51.584;5.188;2024-03-08T12:26:17;100941.19;;;16.42;33.92
83273;BME280;73177;51.584;5.188;2024-03-08T12:28:44;100916.28;;;16.76;34.29
83273;BME280;73177;51.584;5.188;2024-03-08T12:31:14;100919.56;;;17.81;32.66
83273;BME280;73177;51.584;5.188;2024-03-08T12:33:51;100920.06;;;17.73;32.79
83273;BME280;73177;51.584;5.188;2024-03-08T12:36:18;100893.09;;;16.79;33.50
83273;BME280;73177;51.584;5.188;2024-03-08T12:38:46;100899.97;;;16.36;34.31
83273;BME280;73177;51.584;5.188;2024-03-08T12:41:19;100909.34;;;15.64;35.56
83273;BME280;73177;51.584;5.188;2024-03-08T12:43:47;100897.00;;;15.47;35.01
83273;BME280;73177;51.584;5.188;2024-03-08T12:46:16;100898.38;;;16.18;34.52
83273;BME280;73177;51.584;5.188;2024-03-08T12:48:42;100890.13;;;15.11;36.88
83273;BME280;73177;51.584;5.188;2024-03-08T12:51:10;100887.81;;;15.54;35.67
83273;BME280;73177;51.584;5.188;2024-03-08T12:53:36;100890.97;;;15.61;35.64
83273;BME280;73177;51.584;5.188;2024-03-08T12:56:02;100873.13;;;14.99;36.11
83273;BME280;73177;51.584;5.188;2024-03-08T12:58:29;100887.38;;;15.29;35.61